createdAt,value
2022-12-15T00:01:18.020Z,15.05
2022-12-15T00:04:04.137Z,15.95
2022-12-15T00:06:51.360Z,14.60
2022-12-15T00:09:37.365Z,15.68
2022-12-15T00:12:23.500Z,15.15
2022-12-15T00:15:09.389Z,14.02
2022-12-15T00:17:55.725Z,13.48
2022-12-15T00:20:43.073Z,13.53
2022-12-15T00:23:31.138Z,13.77
2022-12-15T00:26:17.938Z,13.73
2022-12-15T00:29:03.966Z,15.45
2022-12-15T00:31:49.853Z,14.45
2022-12-15T00:34:36.540Z,15.07
2022-12-15T00:37:22.895Z,16.05
2022-12-15T00:40:04.345Z,15.25
2022-12-15T00:42:33.144Z,14.40
2022-12-15T00:45:01.608Z,14.10
2022-12-15T00:47:30.116Z,15.20
2022-12-15T00:50:22.087Z,15.00
2022-12-15T00:53:12.916Z,15.55
2022-12-15T00:56:00.404Z,14.48
2022-12-15T00:58:46.421Z,15.05
2022-12-15T01:01:32.407Z,16.10
2022-12-15T01:04:18.355Z,15.75
2022-12-15T01:07:04.773Z,16.90
2022-12-15T01:09:50.694Z,15.90
2022-12-15T01:12:37.617Z,16.33
2022-12-15T01:15:24.246Z,16.10
2022-12-15T01:18:10.247Z,15.75
2022-12-15T01:20:38.700Z,17.30
2022-12-15T01:23:07.061Z,16.55
2022-12-15T01:25:35.581Z,17.40
2022-12-15T01:28:05.453Z,17.10
2022-12-15T01:30:33.909Z,16.35
2022-12-15T01:33:02.306Z,17.30
2022-12-15T01:35:30.752Z,15.95
2022-12-15T01:37:59.168Z,15.27
2022-12-15T01:40:46.085Z,15.17
2022-12-15T01:43:17.810Z,16.63
2022-12-15T01:46:02.586Z,16.40
2022-12-15T01:48:46.762Z,15.18
2022-12-15T01:51:25.184Z,15.45
2022-12-15T01:54:05.196Z,15.87
2022-12-15T01:56:37.905Z,14.80
2022-12-15T01:59:12.080Z,15.07
2022-12-15T02:01:40.747Z,15.30
2022-12-15T02:04:12.048Z,15.05
2022-12-15T02:06:40.523Z,14.57
2022-12-15T02:09:09.212Z,13.70
2022-12-15T02:11:48.119Z,15.45
2022-12-15T02:14:29.601Z,14.88
2022-12-15T02:17:15.283Z,14.95
2022-12-15T02:20:34.178Z,14.37
2022-12-15T02:23:34.597Z,13.75
2022-12-15T02:26:30.228Z,14.00
2022-12-15T02:29:11.088Z,14.70
2022-12-15T02:31:53.942Z,14.07
2022-12-15T02:34:29.232Z,13.17
2022-12-15T02:37:00.894Z,14.10
2022-12-15T02:39:29.546Z,13.63
2022-12-15T02:41:58.033Z,14.25
2022-12-15T02:44:29.823Z,15.43
2022-12-15T02:47:28.602Z,13.97
2022-12-15T02:50:21.576Z,14.43
2022-12-15T02:53:01.764Z,15.02
2022-12-15T02:55:43.712Z,12.68
2022-12-15T02:58:17.658Z,14.38
2022-12-15T03:00:54.025Z,15.13
2022-12-15T03:03:25.093Z,15.48
2022-12-15T03:05:54.741Z,14.82
2022-12-15T03:08:23.668Z,15.30
2022-12-15T03:10:53.854Z,14.40
2022-12-15T03:13:24.229Z,15.90
2022-12-15T03:15:54.522Z,14.48
2022-12-15T03:18:24.263Z,15.57
2022-12-15T03:20:53.644Z,15.52
2022-12-15T03:23:23.097Z,15.48
2022-12-15T03:25:51.665Z,14.80
2022-12-15T03:28:20.103Z,14.93
2022-12-15T03:30:51.417Z,16.15
2022-12-15T03:33:21.502Z,14.45
2022-12-15T03:35:51.273Z,14.70
2022-12-15T03:38:20.034Z,14.53
2022-12-15T03:40:48.865Z,14.50
2022-12-15T03:43:17.578Z,15.63
2022-12-15T03:45:46.327Z,15.93
2022-12-15T03:48:14.717Z,17.08
2022-12-15T03:50:44.472Z,14.57
2022-12-15T03:53:13.928Z,15.02
2022-12-15T03:55:42.314Z,15.73
2022-12-15T03:58:10.747Z,15.48
2022-12-15T04:00:40.078Z,14.65
2022-12-15T04:03:08.607Z,14.73
2022-12-15T04:05:37.478Z,15.13
2022-12-15T04:08:06.576Z,13.93
2022-12-15T04:10:36.846Z,14.55
2022-12-15T04:13:07.415Z,14.68
2022-12-15T04:15:36.602Z,14.33
2022-12-15T04:18:06.861Z,14.50
2022-12-15T04:20:34.442Z,16.25
2022-12-15T04:23:02.965Z,15.30
2022-12-15T04:25:49.080Z,14.65
2022-12-15T04:28:38.482Z,15.60
2022-12-15T04:31:28.638Z,15.10
2022-12-15T04:34:17.038Z,13.38
2022-12-15T04:37:05.467Z,14.45
2022-12-15T04:39:51.465Z,16.05
2022-12-15T04:42:37.596Z,12.77
2022-12-15T04:45:26.096Z,13.43
2022-12-15T04:48:12.215Z,14.52
2022-12-15T04:50:58.129Z,14.23
2022-12-15T04:53:44.110Z,14.00
2022-12-15T04:56:31.223Z,14.07
2022-12-15T04:59:17.502Z,14.30
2022-12-15T05:02:04.956Z,14.30
2022-12-15T05:04:51.836Z,13.55
2022-12-15T05:07:37.704Z,14.43
2022-12-15T05:10:24.664Z,13.13
2022-12-15T05:13:11.212Z,13.73
2022-12-15T05:15:59.487Z,14.30
2022-12-15T05:18:46.707Z,14.32
2022-12-15T05:21:35.409Z,14.40
2022-12-15T05:24:22.055Z,13.67
2022-12-15T05:27:09.504Z,14.38
2022-12-15T05:29:55.793Z,15.52
2022-12-15T05:32:24.771Z,15.15
2022-12-15T05:34:54.608Z,15.35
2022-12-15T05:37:24.539Z,14.63
2022-12-15T05:39:56.485Z,15.35
2022-12-15T05:42:25.149Z,17.15
2022-12-15T05:44:53.685Z,14.07
2022-12-15T05:47:22.530Z,15.02
2022-12-15T05:49:52.339Z,15.23
2022-12-15T05:52:22.272Z,14.93
2022-12-15T05:54:53.961Z,15.00
2022-12-15T05:57:51.933Z,13.85
2022-12-15T06:00:28.260Z,14.35
2022-12-15T06:02:56.992Z,15.77
2022-12-15T06:05:28.127Z,16.35
2022-12-15T06:08:17.479Z,15.85
2022-12-15T06:10:46.506Z,14.73
2022-12-15T06:13:22.653Z,14.82
2022-12-15T06:16:08.641Z,15.20
2022-12-15T06:18:56.121Z,15.82
2022-12-15T06:21:27.075Z,16.70
2022-12-15T06:24:01.085Z,15.93
2022-12-15T06:26:42.716Z,16.45
2022-12-15T06:29:16.171Z,14.83
2022-12-15T06:31:47.744Z,16.73
2022-12-15T06:34:17.835Z,16.58
2022-12-15T06:36:46.839Z,16.02
2022-12-15T06:39:17.823Z,17.25
2022-12-15T06:41:46.710Z,17.27
2022-12-15T06:44:16.931Z,16.20
2022-12-15T06:46:50.138Z,16.63
2022-12-15T06:49:18.921Z,16.45
2022-12-15T06:51:48.007Z,15.48
2022-12-15T06:54:17.970Z,23.93
2022-12-15T06:56:49.877Z,17.48
2022-12-15T06:59:19.345Z,17.50
2022-12-15T07:01:48.458Z,17.23
2022-12-15T07:04:22.638Z,16.75
2022-12-15T07:06:51.548Z,17.67
2022-12-15T07:09:26.198Z,17.25
2022-12-15T07:11:55.072Z,16.83
2022-12-15T07:14:26.935Z,16.83
2022-12-15T07:16:55.925Z,17.17
2022-12-15T07:19:24.614Z,17.03
2022-12-15T07:21:53.390Z,17.02
2022-12-15T07:24:23.412Z,19.02
2022-12-15T07:26:57.847Z,17.88
2022-12-15T07:29:26.725Z,16.80
2022-12-15T07:32:01.489Z,16.50
2022-12-15T07:34:30.356Z,16.67
2022-12-15T07:37:01.052Z,17.02
2022-12-15T07:39:31.197Z,16.65
2022-12-15T07:42:00.079Z,15.63
2022-12-15T07:44:32.042Z,17.47
2022-12-15T07:47:02.201Z,17.27
2022-12-15T07:49:31.277Z,17.50
2022-12-15T07:52:00.340Z,17.60
2022-12-15T07:54:29.470Z,16.98
2022-12-15T07:57:00.417Z,15.77
2022-12-15T07:59:29.508Z,17.55
2022-12-15T08:02:00.693Z,17.40
2022-12-15T08:04:29.809Z,17.00
2022-12-15T08:06:58.526Z,16.95
2022-12-15T08:09:27.526Z,17.03
2022-12-15T08:11:56.214Z,17.05
2022-12-15T08:14:26.335Z,17.08
2022-12-15T08:16:55.327Z,17.52
2022-12-15T08:19:49.197Z,16.48
2022-12-15T08:22:17.892Z,17.03
2022-12-15T08:24:48.212Z,18.10
2022-12-15T08:27:16.994Z,18.75
2022-12-15T08:29:51.494Z,18.60
2022-12-15T08:32:21.261Z,16.80
2022-12-15T08:34:50.791Z,16.63
2022-12-15T08:37:19.627Z,16.08
2022-12-15T08:39:48.501Z,17.75
2022-12-15T08:42:19.254Z,17.05
2022-12-15T08:44:54.676Z,17.13
2022-12-15T08:47:26.867Z,16.33
2022-12-15T08:49:55.864Z,16.77
2022-12-15T08:52:25.381Z,16.92
2022-12-15T08:54:54.564Z,16.90
2022-12-15T08:57:23.419Z,16.92
2022-12-15T08:59:53.380Z,16.70
2022-12-15T09:02:22.302Z,15.93
2022-12-15T09:04:52.351Z,18.08
2022-12-15T09:07:23.221Z,17.25
2022-12-15T09:09:51.974Z,16.85
2022-12-15T09:12:22.087Z,16.23
2022-12-15T09:14:51.192Z,15.73
2022-12-15T09:17:28.737Z,17.83
2022-12-15T09:20:02.292Z,16.88
2022-12-15T09:22:36.817Z,15.82
2022-12-15T09:25:12.977Z,15.53
2022-12-15T09:27:47.505Z,16.02
2022-12-15T09:30:17.914Z,17.42
2022-12-15T09:32:53.417Z,15.15
2022-12-15T09:35:22.561Z,16.00
2022-12-15T09:37:55.449Z,15.27
2022-12-15T09:40:30.432Z,17.35
2022-12-15T09:43:25.826Z,17.17
2022-12-15T09:45:54.094Z,16.42
2022-12-15T09:48:27.568Z,16.30
2022-12-15T09:50:58.717Z,15.50
2022-12-15T09:53:54.246Z,17.15
2022-12-15T09:56:36.225Z,17.48
2022-12-15T09:59:23.090Z,18.15
2022-12-15T10:02:35.946Z,16.10
2022-12-15T10:05:17.183Z,15.80
2022-12-15T10:07:50.589Z,16.05
2022-12-15T10:10:46.251Z,16.98
2022-12-15T10:13:26.106Z,16.00
2022-12-15T10:15:59.918Z,16.40
2022-12-15T10:18:35.452Z,17.70
2022-12-15T10:21:07.510Z,17.30
2022-12-15T10:23:37.966Z,17.92
2022-12-15T10:26:20.691Z,17.63
2022-12-15T10:29:04.704Z,18.63
2022-12-15T10:31:37.904Z,17.53
2022-12-15T10:34:11.906Z,17.40
2022-12-15T10:36:51.982Z,17.67
2022-12-15T10:39:23.067Z,17.40
2022-12-15T10:42:15.233Z,17.27
2022-12-15T10:44:50.519Z,17.60
2022-12-15T10:47:23.276Z,16.25
2022-12-15T10:49:52.465Z,17.13
2022-12-15T10:52:28.899Z,16.90
2022-12-15T10:55:02.219Z,16.08
2022-12-15T10:57:35.930Z,17.50
2022-12-15T11:00:29.586Z,17.70
2022-12-15T11:02:59.256Z,17.30
2022-12-15T11:05:28.365Z,17.75
2022-12-15T11:08:15.724Z,18.42
2022-12-15T11:11:45.113Z,19.20
2022-12-15T11:14:16.913Z,19.35
2022-12-15T11:16:50.173Z,19.88
2022-12-15T11:19:37.732Z,17.10
2022-12-15T11:22:14.085Z,18.35
2022-12-15T11:25:19.082Z,17.27
2022-12-15T11:27:59.165Z,18.00
2022-12-15T11:30:35.879Z,19.20
2022-12-15T11:33:06.476Z,18.48
2022-12-15T11:35:58.513Z,19.77
2022-12-15T11:38:33.894Z,18.53
2022-12-15T11:41:12.270Z,18.85
2022-12-15T11:44:04.250Z,20.02
2022-12-15T11:46:45.574Z,19.85
2022-12-15T11:49:41.394Z,18.45
2022-12-15T11:52:18.704Z,19.80
2022-12-15T11:54:52.470Z,19.08
2022-12-15T11:57:50.466Z,19.33
2022-12-15T12:00:21.214Z,18.77
2022-12-15T12:03:18.807Z,19.90
2022-12-15T12:06:18.176Z,19.47
2022-12-15T12:09:00.597Z,20.58
2022-12-15T12:11:36.189Z,19.88
2022-12-15T12:14:17.502Z,20.05
2022-12-15T12:16:52.040Z,18.75
2022-12-15T12:19:24.840Z,18.70
2022-12-15T12:21:59.607Z,17.73
2022-12-15T12:24:32.420Z,19.95
2022-12-15T12:27:02.850Z,18.95
2022-12-15T12:29:36.647Z,19.38
2022-12-15T12:32:12.050Z,20.63
2022-12-15T12:35:32.043Z,19.17
2022-12-15T12:37:45.772Z,20.20
2022-12-15T12:40:20.966Z,19.35
2022-12-15T12:42:57.221Z,20.60
2022-12-15T12:45:30.541Z,18.60
2022-12-15T12:48:02.906Z,20.02
2022-12-15T12:50:31.882Z,20.50
2022-12-15T12:53:03.278Z,19.50
2022-12-15T12:55:39.844Z,20.23
2022-12-15T12:58:33.114Z,20.07
2022-12-15T13:01:28.914Z,18.48
2022-12-15T13:04:08.622Z,19.83
2022-12-15T13:07:00.538Z,20.77
2022-12-15T13:09:43.183Z,20.08
2022-12-15T13:12:59.841Z,20.23
2022-12-15T13:15:45.785Z,20.67
2022-12-15T13:18:23.609Z,22.42
2022-12-15T13:20:55.760Z,22.40
2022-12-15T13:23:41.938Z,23.40
2022-12-15T13:26:15.873Z,20.07
2022-12-15T13:28:50.754Z,20.63
2022-12-15T13:31:44.162Z,19.45
2022-12-15T13:34:20.327Z,20.27
2022-12-15T13:36:57.000Z,20.70
2022-12-15T13:39:59.477Z,19.40
2022-12-15T13:42:51.375Z,18.95
2022-12-15T13:45:36.820Z,19.95
2022-12-15T13:48:19.403Z,19.83
2022-12-15T13:50:55.373Z,22.73
2022-12-15T13:53:26.757Z,21.20
2022-12-15T13:56:05.272Z,20.75
2022-12-15T13:58:40.766Z,21.83
2022-12-15T14:01:21.509Z,21.08
2022-12-15T14:04:07.935Z,20.80
2022-12-15T14:06:41.660Z,21.07
2022-12-15T14:09:15.663Z,20.27
2022-12-15T14:11:54.434Z,21.05
2022-12-15T14:14:33.218Z,20.38
2022-12-15T14:17:04.065Z,20.55
2022-12-15T14:22:37.852Z,22.13
2022-12-15T14:25:24.474Z,21.92
2022-12-15T14:27:55.920Z,21.17
2022-12-15T14:30:44.679Z,20.58
2022-12-15T14:33:16.517Z,20.47
2022-12-15T20:05:24.687Z,27.75
2022-12-15T20:07:53.600Z,25.50
2022-12-15T20:10:31.316Z,25.25
2022-12-15T20:13:03.425Z,27.80
2022-12-15T20:15:38.331Z,30.43
2022-12-15T20:18:12.493Z,35.55
2022-12-15T20:20:48.246Z,30.58
2022-12-15T20:23:20.784Z,33.05
2022-12-15T20:26:31.075Z,37.35
2022-12-15T20:29:11.870Z,27.73
2022-12-15T20:31:40.700Z,33.15
2022-12-15T20:34:11.229Z,28.75
2022-12-15T20:36:42.118Z,33.10
2022-12-15T20:39:57.000Z,28.88
2022-12-15T20:42:26.693Z,25.80
2022-12-15T20:44:55.281Z,55.50
2022-12-15T20:47:26.490Z,32.38
2022-12-15T20:52:45.172Z,26.38
2022-12-15T20:55:29.415Z,23.93
2022-12-15T20:57:58.164Z,22.65
2022-12-15T21:00:26.971Z,27.73
2022-12-15T21:03:00.273Z,43.10
2022-12-15T21:05:29.787Z,38.75
2022-12-15T21:08:15.788Z,25.27
2022-12-15T21:10:44.668Z,21.08
2022-12-15T21:13:18.874Z,22.40
2022-12-15T21:15:48.116Z,20.45
2022-12-15T21:21:13.120Z,23.87
2022-12-15T21:23:43.054Z,20.17
2022-12-15T21:26:12.100Z,20.05
2022-12-15T21:28:40.688Z,18.90
2022-12-15T21:31:18.147Z,20.15
2022-12-15T21:33:47.185Z,20.80
2022-12-15T21:36:17.444Z,18.65
2022-12-15T21:38:50.835Z,37.63
2022-12-15T21:41:22.076Z,20.60
2022-12-15T21:43:51.215Z,39.65
2022-12-15T21:46:27.709Z,43.72
2022-12-15T21:49:15.592Z,24.38
2022-12-15T21:51:46.809Z,26.55
2022-12-15T21:54:19.653Z,18.48
2022-12-15T21:56:48.697Z,18.42
2022-12-15T21:59:19.833Z,43.15
2022-12-15T22:01:50.103Z,27.50
2022-12-15T22:04:22.634Z,55.25
2022-12-15T22:06:51.230Z,19.83
2022-12-15T22:09:22.655Z,18.17
2022-12-15T22:11:56.690Z,17.45
2022-12-15T22:14:43.832Z,23.40
2022-12-15T22:17:17.282Z,29.45
2022-12-15T22:19:48.822Z,24.08
2022-12-15T22:22:20.762Z,17.17
2022-12-15T22:24:50.544Z,17.30
2022-12-15T22:27:26.373Z,23.45
2022-12-15T22:30:33.247Z,18.65
2022-12-15T22:33:02.094Z,28.38
2022-12-15T22:35:30.802Z,22.30
2022-12-15T22:38:03.718Z,19.08
2022-12-15T22:40:33.760Z,16.05
2022-12-15T22:43:03.597Z,15.60
2022-12-15T22:45:32.702Z,14.93
2022-12-15T22:48:01.530Z,14.40
2022-12-15T22:50:30.404Z,15.27
2022-12-15T22:53:02.970Z,15.73
2022-12-15T22:55:39.665Z,15.20
2022-12-15T22:58:11.596Z,14.55
2022-12-15T23:00:43.041Z,14.98
2022-12-15T23:03:14.999Z,16.08
2022-12-15T23:05:43.991Z,15.27
2022-12-15T23:08:15.014Z,14.13
2022-12-15T23:11:09.374Z,14.65
2022-12-15T23:13:40.142Z,13.63
2022-12-15T23:16:19.792Z,14.18
2022-12-15T23:18:52.677Z,14.05
2022-12-15T23:21:30.794Z,14.75
2022-12-15T23:24:04.517Z,14.93
2022-12-15T23:26:37.205Z,15.13
2022-12-15T23:29:06.248Z,15.20
2022-12-15T23:31:40.336Z,15.15
2022-12-15T23:34:13.675Z,15.85
2022-12-15T23:36:42.337Z,13.98
2022-12-15T23:39:10.927Z,13.85
2022-12-15T23:41:41.259Z,13.30
2022-12-15T23:44:09.826Z,14.95
2022-12-15T23:46:38.363Z,13.60
2022-12-15T23:49:08.363Z,14.32
2022-12-15T23:51:36.803Z,14.05
2022-12-15T23:54:05.499Z,14.90
2022-12-15T23:56:34.097Z,15.55
2022-12-15T23:59:03.788Z,14.82
